Terminal Aerodrome Forecast
Issued by NWS Grand Forks, ND

Home | Current Version | Previous Version | Graphics & Text | Print | Product List | Glossary On
Versions: 1 2 3 4 5 6 7 8 9 10 11 12 13 14 15 16
099
FTUS43 KFGF 202033 AAA
TAFFAR
TAF AMD
KFAR 202033Z 2021/2118 07015KT P6SM -RA OVC025
     FM210200 03013KT P6SM -RA OVC015
     FM210700 01009KT P6SM -RA OVC008
     FM211100 35008KT P6SM OVC008
     FM211500 33011KT P6SM OVC010
     FM211700 33012KT P6SM OVC020=

USA.gov is the U.S. government's official web portal to all federal, state and local government web resources and services.